sensor_id;sensor_type;location;lat;lon;timestamp;P1;P2;P0
65783;PMS5003;52532;53.358;-1.488;2022-10-16T00:02:24;114.1;103.7;
65783;PMS5003;52532;53.358;-1.488;2022-10-16T00:05:27;112.6;104.7;
65783;PMS5003;52532;53.358;-1.488;2022-10-16T00:08:31;118.2;105.1;
65783;PMS5003;52532;53.358;-1.488;2022-10-16T00:11:35;113.8;100.9;
65783;PMS5003;52532;53.358;-1.488;2022-10-16T00:14:40;131.0;121.8;
65783;PMS5003;52532;53.358;-1.488;2022-10-16T00:17:45;121.7;106.7;
65783;PMS5003;52532;53.358;-1.488;2022-10-16T00:20:48;121.9;109.7;
65783;PMS5003;52532;53.358;-1.488;2022-10-16T00:23:51;126.5;114.9;
65783;PMS5003;52532;53.358;-1.488;2022-10-16T00:26:55;111.0;98.0;
65783;PMS5003;52532;53.358;-1.488;2022-10-16T00:29:57;116.1;106.5;
65783;PMS5003;52532;53.358;-1.488;2022-10-16T00:33:00;123.1;113.0;
65783;PMS5003;52532;53.358;-1.488;2022-10-16T00:36:04;117.2;104.1;
65783;PMS5003;52532;53.358;-1.488;2022-10-16T00:39:08;120.7;108.5;
65783;PMS5003;52532;53.358;-1.488;2022-10-16T00:42:11;122.1;111.4;
65783;PMS5003;52532;53.358;-1.488;2022-10-16T00:45:18;117.8;105.6;
65783;PMS5003;52532;53.358;-1.488;2022-10-16T00:48:20;123.7;115.4;
65783;PMS5003;52532;53.358;-1.488;2022-10-16T00:51:25;128.4;118.4;
65783;PMS5003;52532;53.358;-1.488;2022-10-16T00:54:33;132.0;119.1;
65783;PMS5003;52532;53.358;-1.488;2022-10-16T00:57:36;126.7;119.5;
65783;PMS5003;52532;53.358;-1.488;2022-10-16T01:00:39;125.5;112.3;
65783;PMS5003;52532;53.358;-1.488;2022-10-16T01:03:42;120.0;108.7;
65783;PMS5003;52532;53.358;-1.488;2022-10-16T01:06:46;125.1;117.4;
65783;PMS5003;52532;53.358;-1.488;2022-10-16T01:10:02;119.2;108.9;
65783;PMS5003;52532;53.358;-1.488;2022-10-16T01:13:10;119.6;108.3;
65783;PMS5003;52532;53.358;-1.488;2022-10-16T01:16:20;121.1;114.3;
65783;PMS5003;52532;53.358;-1.488;2022-10-16T01:19:34;123.4;107.9;
65783;PMS5003;52532;53.358;-1.488;2022-10-16T01:23:07;124.4;109.6;
65783;PMS5003;52532;53.358;-1.488;2022-10-16T01:26:20;111.7;101.4;
65783;PMS5003;52532;53.358;-1.488;2022-10-16T01:29:34;107.4;94.1;
65783;PMS5003;52532;53.358;-1.488;2022-10-16T01:32:43;107.4;96.9;
65783;PMS5003;52532;53.358;-1.488;2022-10-16T01:35:52;100.7;92.6;
65783;PMS5003;52532;53.358;-1.488;2022-10-16T01:38:59;95.5;79.1;
65783;PMS5003;52532;53.358;-1.488;2022-10-16T01:42:06;100.2;88.6;
65783;PMS5003;52532;53.358;-1.488;2022-10-16T01:45:13;93.2;82.8;
65783;PMS5003;52532;53.358;-1.488;2022-10-16T01:48:19;92.0;79.6;
65783;PMS5003;52532;53.358;-1.488;2022-10-16T01:51:25;81.9;70.4;
65783;PMS5003;52532;53.358;-1.488;2022-10-16T01:54:30;88.9;80.7;
65783;PMS5003;52532;53.358;-1.488;2022-10-16T01:57:35;112.2;100.4;
65783;PMS5003;52532;53.358;-1.488;2022-10-16T02:00:43;95.1;84.4;
65783;PMS5003;52532;53.358;-1.488;2022-10-16T02:03:49;75.3;67.1;
65783;PMS5003;52532;53.358;-1.488;2022-10-16T02:06:55;86.9;72.6;
65783;PMS5003;52532;53.358;-1.488;2022-10-16T02:09:59;100.3;91.7;
65783;PMS5003;52532;53.358;-1.488;2022-10-16T02:13:03;92.5;81.6;
65783;PMS5003;52532;53.358;-1.488;2022-10-16T02:16:11;102.1;90.2;
65783;PMS5003;52532;53.358;-1.488;2022-10-16T02:19:16;108.0;99.2;
65783;PMS5003;52532;53.358;-1.488;2022-10-16T02:22:22;83.0;72.5;
65783;PMS5003;52532;53.358;-1.488;2022-10-16T02:25:29;100.8;88.8;
65783;PMS5003;52532;53.358;-1.488;2022-10-16T02:28:35;102.1;94.5;
65783;PMS5003;52532;53.358;-1.488;2022-10-16T02:31:43;89.6;78.2;
65783;PMS5003;52532;53.358;-1.488;2022-10-16T02:34:50;96.0;84.3;
65783;PMS5003;52532;53.358;-1.488;2022-10-16T02:37:54;92.9;84.9;
65783;PMS5003;52532;53.358;-1.488;2022-10-16T02:40:58;88.3;77.0;
65783;PMS5003;52532;53.358;-1.488;2022-10-16T02:44:01;101.2;88.8;
65783;PMS5003;52532;53.358;-1.488;2022-10-16T02:47:04;91.8;83.9;
65783;PMS5003;52532;53.358;-1.488;2022-10-16T02:50:07;103.8;91.9;
65783;PMS5003;52532;53.358;-1.488;2022-10-16T02:53:10;102.5;89.8;
65783;PMS5003;52532;53.358;-1.488;2022-10-16T02:56:12;89.4;80.9;
65783;PMS5003;52532;53.358;-1.488;2022-10-16T02:59:15;74.2;62.7;
65783;PMS5003;52532;53.358;-1.488;2022-10-16T03:02:18;78.6;67.8;
65783;PMS5003;52532;53.358;-1.488;2022-10-16T03:05:21;88.2;80.6;
65783;PMS5003;52532;53.358;-1.488;2022-10-16T03:08:24;110.7;97.6;
65783;PMS5003;52532;53.358;-1.488;2022-10-16T03:11:27;119.9;108.7;
65783;PMS5003;52532;53.358;-1.488;2022-10-16T03:14:29;99.9;92.0;
65783;PMS5003;52532;53.358;-1.488;2022-10-16T03:17:32;100.9;88.8;
65783;PMS5003;52532;53.358;-1.488;2022-10-16T03:20:36;101.1;89.1;
65783;PMS5003;52532;53.358;-1.488;2022-10-16T03:23:39;82.5;74.0;
65783;PMS5003;52532;53.358;-1.488;2022-10-16T03:26:41;108.2;96.5;
65783;PMS5003;52532;53.358;-1.488;2022-10-16T03:29:44;113.6;100.0;
65783;PMS5003;52532;53.358;-1.488;2022-10-16T03:32:47;105.8;97.3;
65783;PMS5003;52532;53.358;-1.488;2022-10-16T03:35:51;122.6;110.7;
65783;PMS5003;52532;53.358;-1.488;2022-10-16T03:38:54;120.1;109.1;
65783;PMS5003;52532;53.358;-1.488;2022-10-16T03:41:57;146.1;141.8;
65783;PMS5003;52532;53.358;-1.488;2022-10-16T03:45:00;122.5;110.5;
65783;PMS5003;52532;53.358;-1.488;2022-10-16T03:48:03;111.6;102.0;
65783;PMS5003;52532;53.358;-1.488;2022-10-16T03:51:06;110.0;97.2;
65783;PMS5003;52532;53.358;-1.488;2022-10-16T03:54:09;104.7;91.8;
65783;PMS5003;52532;53.358;-1.488;2022-10-16T03:57:12;105.9;97.9;
65783;PMS5003;52532;53.358;-1.488;2022-10-16T04:00:15;99.9;90.8;
65783;PMS5003;52532;53.358;-1.488;2022-10-16T04:03:18;108.9;96.2;
65783;PMS5003;52532;53.358;-1.488;2022-10-16T04:06:21;100.7;91.9;
65783;PMS5003;52532;53.358;-1.488;2022-10-16T04:09:24;79.2;68.7;
65783;PMS5003;52532;53.358;-1.488;2022-10-16T04:12:27;83.1;71.9;
65783;PMS5003;52532;53.358;-1.488;2022-10-16T04:15:30;90.0;81.8;
65783;PMS5003;52532;53.358;-1.488;2022-10-16T04:18:32;96.9;86.9;
65783;PMS5003;52532;53.358;-1.488;2022-10-16T04:21:36;105.6;93.7;
65783;PMS5003;52532;53.358;-1.488;2022-10-16T04:24:40;88.1;80.8;
65783;PMS5003;52532;53.358;-1.488;2022-10-16T04:27:42;73.9;62.6;
65783;PMS5003;52532;53.358;-1.488;2022-10-16T04:30:45;82.3;71.2;
65783;PMS5003;52532;53.358;-1.488;2022-10-16T04:33:48;86.9;79.4;
65783;PMS5003;52532;53.358;-1.488;2022-10-16T04:36:51;83.3;72.5;
65783;PMS5003;52532;53.358;-1.488;2022-10-16T04:39:54;75.3;64.1;
65783;PMS5003;52532;53.358;-1.488;2022-10-16T04:42:57;68.5;60.7;
65783;PMS5003;52532;53.358;-1.488;2022-10-16T04:45:59;75.5;63.9;
65783;PMS5003;52532;53.358;-1.488;2022-10-16T04:49:03;82.3;68.6;
65783;PMS5003;52532;53.358;-1.488;2022-10-16T04:52:06;72.7;64.4;
65783;PMS5003;52532;53.358;-1.488;2022-10-16T04:55:10;81.0;68.6;
65783;PMS5003;52532;53.358;-1.488;2022-10-16T04:58:13;77.3;65.6;
65783;PMS5003;52532;53.358;-1.488;2022-10-16T05:01:16;87.5;76.5;
65783;PMS5003;52532;53.358;-1.488;2022-10-16T05:04:19;89.4;77.0;
65783;PMS5003;52532;53.358;-1.488;2022-10-16T05:07:22;90.0;80.2;
65783;PMS5003;52532;53.358;-1.488;2022-10-16T05:10:24;74.0;65.7;
65783;PMS5003;52532;53.358;-1.488;2022-10-16T05:13:27;77.0;65.2;
65783;PMS5003;52532;53.358;-1.488;2022-10-16T05:16:30;91.6;80.5;
65783;PMS5003;52532;53.358;-1.488;2022-10-16T05:19:33;73.2;66.2;
65783;PMS5003;52532;53.358;-1.488;2022-10-16T05:22:35;68.1;56.1;
65783;PMS5003;52532;53.358;-1.488;2022-10-16T05:25:38;67.2;57.1;
65783;PMS5003;52532;53.358;-1.488;2022-10-16T05:28:41;102.2;94.6;
65783;PMS5003;52532;53.358;-1.488;2022-10-16T05:31:44;97.1;85.4;
65783;PMS5003;52532;53.358;-1.488;2022-10-16T05:34:46;84.6;75.4;
65783;PMS5003;52532;53.358;-1.488;2022-10-16T05:37:49;100.5;91.3;
65783;PMS5003;52532;53.358;-1.488;2022-10-16T05:40:52;104.0;91.4;
65783;PMS5003;52532;53.358;-1.488;2022-10-16T05:43:55;91.6;83.7;
65783;PMS5003;52532;53.358;-1.488;2022-10-16T05:46:58;100.5;90.8;
65783;PMS5003;52532;53.358;-1.488;2022-10-16T05:50:01;84.5;73.2;
65783;PMS5003;52532;53.358;-1.488;2022-10-16T05:53:05;85.0;78.5;
65783;PMS5003;52532;53.358;-1.488;2022-10-16T05:56:09;111.2;105.3;
65783;PMS5003;52532;53.358;-1.488;2022-10-16T05:59:13;111.9;104.9;
65783;PMS5003;52532;53.358;-1.488;2022-10-16T06:02:17;75.7;70.2;
65783;PMS5003;52532;53.358;-1.488;2022-10-16T06:05:19;69.8;59.4;
65783;PMS5003;52532;53.358;-1.488;2022-10-16T06:08:22;70.3;57.8;
65783;PMS5003;52532;53.358;-1.488;2022-10-16T06:11:28;80.6;75.0;
65783;PMS5003;52532;53.358;-1.488;2022-10-16T06:14:32;115.0;109.3;
65783;PMS5003;52532;53.358;-1.488;2022-10-16T06:17:35;111.9;101.6;
65783;PMS5003;52532;53.358;-1.488;2022-10-16T06:20:38;85.0;78.6;
65783;PMS5003;52532;53.358;-1.488;2022-10-16T06:23:40;110.5;100.3;
65783;PMS5003;52532;53.358;-1.488;2022-10-16T06:26:43;107.5;97.2;
65783;PMS5003;52532;53.358;-1.488;2022-10-16T06:29:46;84.0;79.0;
65783;PMS5003;52532;53.358;-1.488;2022-10-16T06:32:49;113.7;105.4;
65783;PMS5003;52532;53.358;-1.488;2022-10-16T06:35:52;103.8;93.8;
65783;PMS5003;52532;53.358;-1.488;2022-10-16T06:38:54;76.5;70.8;
65783;PMS5003;52532;53.358;-1.488;2022-10-16T06:41:57;107.0;99.6;
65783;PMS5003;52532;53.358;-1.488;2022-10-16T06:45:00;104.0;94.6;
65783;PMS5003;52532;53.358;-1.488;2022-10-16T06:48:03;75.5;72.8;
65783;PMS5003;52532;53.358;-1.488;2022-10-16T06:51:06;115.4;107.4;
65783;PMS5003;52532;53.358;-1.488;2022-10-16T06:54:14;98.1;89.3;
65783;PMS5003;52532;53.358;-1.488;2022-10-16T06:57:24;86.5;79.5;
65783;PMS5003;52532;53.358;-1.488;2022-10-16T07:00:28;109.6;98.8;
65783;PMS5003;52532;53.358;-1.488;2022-10-16T07:03:30;95.4;87.3;
65783;PMS5003;52532;53.358;-1.488;2022-10-16T07:06:34;94.3;87.0;
65783;PMS5003;52532;53.358;-1.488;2022-10-16T07:09:37;96.2;85.3;
65783;PMS5003;52532;53.358;-1.488;2022-10-16T07:12:40;77.4;69.3;
65783;PMS5003;52532;53.358;-1.488;2022-10-16T07:15:43;105.2;97.3;
65783;PMS5003;52532;53.358;-1.488;2022-10-16T07:18:46;103.7;92.8;
65783;PMS5003;52532;53.358;-1.488;2022-10-16T07:21:50;71.6;65.1;
65783;PMS5003;52532;53.358;-1.488;2022-10-16T07:24:53;106.8;98.8;
65783;PMS5003;52532;53.358;-1.488;2022-10-16T07:27:56;104.6;93.6;
65783;PMS5003;52532;53.358;-1.488;2022-10-16T07:31:00;72.9;65.8;
65783;PMS5003;52532;53.358;-1.488;2022-10-16T07:34:04;101.7;91.0;
65783;PMS5003;52532;53.358;-1.488;2022-10-16T07:37:07;86.7;71.3;
65783;PMS5003;52532;53.358;-1.488;2022-10-16T07:40:10;80.4;71.9;
65783;PMS5003;52532;53.358;-1.488;2022-10-16T07:43:14;85.1;74.1;
65783;PMS5003;52532;53.358;-1.488;2022-10-16T07:46:17;76.4;61.6;
65783;PMS5003;52532;53.358;-1.488;2022-10-16T07:49:21;66.9;63.0;
65783;PMS5003;52532;53.358;-1.488;2022-10-16T07:52:24;104.3;94.4;
65783;PMS5003;52532;53.358;-1.488;2022-10-16T07:55:32;91.6;80.6;
65783;PMS5003;52532;53.358;-1.488;2022-10-16T07:58:34;79.8;73.1;
65783;PMS5003;52532;53.358;-1.488;2022-10-16T08:01:38;106.5;94.1;
65783;PMS5003;52532;53.358;-1.488;2022-10-16T08:04:43;104.6;94.3;
65783;PMS5003;52532;53.358;-1.488;2022-10-16T08:07:49;79.0;71.8;
65783;PMS5003;52532;53.358;-1.488;2022-10-16T08:10:52;105.1;96.4;
65783;PMS5003;52532;53.358;-1.488;2022-10-16T08:13:56;93.2;83.3;
65783;PMS5003;52532;53.358;-1.488;2022-10-16T08:16:59;65.5;59.6;
65783;PMS5003;52532;53.358;-1.488;2022-10-16T08:20:03;107.0;98.8;
65783;PMS5003;52532;53.358;-1.488;2022-10-16T08:23:08;85.3;74.3;
65783;PMS5003;52532;53.358;-1.488;2022-10-16T08:26:12;75.0;65.5;
65783;PMS5003;52532;53.358;-1.488;2022-10-16T08:29:15;90.1;78.6;
65783;PMS5003;52532;53.358;-1.488;2022-10-16T08:32:18;75.9;65.5;
65783;PMS5003;52532;53.358;-1.488;2022-10-16T08:35:21;82.2;74.9;
65783;PMS5003;52532;53.358;-1.488;2022-10-16T08:38:23;103.3;96.2;
65783;PMS5003;52532;53.358;-1.488;2022-10-16T08:41:34;78.1;69.4;
65783;PMS5003;52532;53.358;-1.488;2022-10-16T08:45:00;92.7;89.7;
65783;PMS5003;52532;53.358;-1.488;2022-10-16T08:48:17;99.7;98.4;
65783;PMS5003;52532;53.358;-1.488;2022-10-16T08:51:28;79.4;77.3;
65783;PMS5003;52532;53.358;-1.488;2022-10-16T08:54:34;84.0;83.4;
65783;PMS5003;52532;53.358;-1.488;2022-10-16T08:57:43;91.4;89.1;
65783;PMS5003;52532;53.358;-1.488;2022-10-16T09:00:47;77.3;73.9;
65783;PMS5003;52532;53.358;-1.488;2022-10-16T09:03:58;87.1;83.4;
65783;PMS5003;52532;53.358;-1.488;2022-10-16T09:07:22;91.2;85.4;
65783;PMS5003;52532;53.358;-1.488;2022-10-16T09:10:37;62.8;57.8;
65783;PMS5003;52532;53.358;-1.488;2022-10-16T09:13:48;68.4;68.4;
65783;PMS5003;52532;53.358;-1.488;2022-10-16T09:16:56;80.2;80.2;
65783;PMS5003;52532;53.358;-1.488;2022-10-16T09:20:40;58.7;58.7;
65783;PMS5003;52532;53.358;-1.488;2022-10-16T09:23:51;78.9;78.4;
65783;PMS5003;52532;53.358;-1.488;2022-10-16T09:27:07;73.2;72.6;
65783;PMS5003;52532;53.358;-1.488;2022-10-16T09:30:21;52.3;51.3;
65783;PMS5003;52532;53.358;-1.488;2022-10-16T09:33:30;72.7;68.1;
65783;PMS5003;52532;53.358;-1.488;2022-10-16T09:36:39;69.2;61.9;
65783;PMS5003;52532;53.358;-1.488;2022-10-16T09:39:44;60.2;54.9;
65783;PMS5003;52532;53.358;-1.488;2022-10-16T09:42:48;79.4;74.0;
65783;PMS5003;52532;53.358;-1.488;2022-10-16T09:45:55;83.2;76.7;
65783;PMS5003;52532;53.358;-1.488;2022-10-16T09:49:01;65.7;60.2;
65783;PMS5003;52532;53.358;-1.488;2022-10-16T09:52:11;86.2;74.6;
65783;PMS5003;52532;53.358;-1.488;2022-10-16T09:55:16;85.3;74.6;
65783;PMS5003;52532;53.358;-1.488;2022-10-16T09:58:21;59.6;58.5;
65783;PMS5003;52532;53.358;-1.488;2022-10-16T10:01:30;76.3;69.0;
65783;PMS5003;52532;53.358;-1.488;2022-10-16T10:04:39;83.8;72.5;
65783;PMS5003;52532;53.358;-1.488;2022-10-16T10:07:44;56.9;53.9;
65783;PMS5003;52532;53.358;-1.488;2022-10-16T10:10:47;74.5;69.5;
65783;PMS5003;52532;53.358;-1.488;2022-10-16T10:13:51;76.4;68.4;
65783;PMS5003;52532;53.358;-1.488;2022-10-16T10:17:02;65.1;63.9;
65783;PMS5003;52532;53.358;-1.488;2022-10-16T10:20:18;79.1;75.2;
65783;PMS5003;52532;53.358;-1.488;2022-10-16T10:23:27;65.8;57.5;
65783;PMS5003;52532;53.358;-1.488;2022-10-16T10:26:32;67.4;58.4;
65783;PMS5003;52532;53.358;-1.488;2022-10-16T10:29:38;84.3;72.9;
65783;PMS5003;52532;53.358;-1.488;2022-10-16T10:32:58;76.5;68.1;
65783;PMS5003;52532;53.358;-1.488;2022-10-16T10:36:16;73.5;64.5;
65783;PMS5003;52532;53.358;-1.488;2022-10-16T10:39:30;88.8;77.8;
65783;PMS5003;52532;53.358;-1.488;2022-10-16T10:42:40;78.0;69.5;
65783;PMS5003;52532;53.358;-1.488;2022-10-16T10:45:52;71.0;64.2;
65783;PMS5003;52532;53.358;-1.488;2022-10-16T10:49:10;78.9;68.9;
65783;PMS5003;52532;53.358;-1.488;2022-10-16T10:52:30;69.6;62.2;
65783;PMS5003;52532;53.358;-1.488;2022-10-16T10:55:44;69.4;66.4;
65783;PMS5003;52532;53.358;-1.488;2022-10-16T10:58:56;74.3;68.4;
65783;PMS5003;52532;53.358;-1.488;2022-10-16T11:02:13;58.3;53.6;
65783;PMS5003;52532;53.358;-1.488;2022-10-16T11:05:28;71.9;62.6;
65783;PMS5003;52532;53.358;-1.488;2022-10-16T11:08:41;79.1;72.8;
65783;PMS5003;52532;53.358;-1.488;2022-10-16T11:11:49;60.9;56.0;
65783;PMS5003;52532;53.358;-1.488;2022-10-16T11:14:58;74.2;72.5;
65783;PMS5003;52532;53.358;-1.488;2022-10-16T11:18:08;76.9;72.3;
65783;PMS5003;52532;53.358;-1.488;2022-10-16T11:21:18;61.7;58.2;
65783;PMS5003;52532;53.358;-1.488;2022-10-16T11:24:23;82.1;75.4;
65783;PMS5003;52532;53.358;-1.488;2022-10-16T11:27:38;80.5;72.0;
65783;PMS5003;52532;53.358;-1.488;2022-10-16T11:30:44;59.6;55.4;
65783;PMS5003;52532;53.358;-1.488;2022-10-16T11:33:54;77.5;70.0;
65783;PMS5003;52532;53.358;-1.488;2022-10-16T11:37:05;80.5;68.7;
65783;PMS5003;52532;53.358;-1.488;2022-10-16T11:40:18;52.2;49.4;
65783;PMS5003;52532;53.358;-1.488;2022-10-16T11:43:26;58.0;55.5;
65783;PMS5003;52532;53.358;-1.488;2022-10-16T11:46:35;80.1;71.8;
65783;PMS5003;52532;53.358;-1.488;2022-10-16T11:49:41;43.9;43.7;
65783;PMS5003;52532;53.358;-1.488;2022-10-16T11:52:51;53.4;48.7;
65783;PMS5003;52532;53.358;-1.488;2022-10-16T11:55:58;74.0;65.3;
65783;PMS5003;52532;53.358;-1.488;2022-10-16T11:59:01;52.9;50.5;
65783;PMS5003;52532;53.358;-1.488;2022-10-16T12:02:15;56.7;53.9;
65783;PMS5003;52532;53.358;-1.488;2022-10-16T12:05:38;65.7;60.0;
65783;PMS5003;52532;53.358;-1.488;2022-10-16T12:08:58;52.6;52.6;
65783;PMS5003;52532;53.358;-1.488;2022-10-16T12:12:01;57.3;55.8;
65783;PMS5003;52532;53.358;-1.488;2022-10-16T12:15:18;66.3;61.9;
65783;PMS5003;52532;53.358;-1.488;2022-10-16T12:18:23;52.5;51.4;
65783;PMS5003;52532;53.358;-1.488;2022-10-16T12:21:30;57.9;56.3;
65783;PMS5003;52532;53.358;-1.488;2022-10-16T12:24:34;53.2;51.3;
65783;PMS5003;52532;53.358;-1.488;2022-10-16T12:27:39;69.4;63.8;
65783;PMS5003;52532;53.358;-1.488;2022-10-16T12:30:42;76.5;69.7;
65783;PMS5003;52532;53.358;-1.488;2022-10-16T12:33:59;58.4;53.8;
65783;PMS5003;52532;53.358;-1.488;2022-10-16T12:37:09;61.9;61.6;
65783;PMS5003;52532;53.358;-1.488;2022-10-16T12:40:16;67.5;61.8;
65783;PMS5003;52532;53.358;-1.488;2022-10-16T12:43:37;55.6;52.0;
65783;PMS5003;52532;53.358;-1.488;2022-10-16T12:46:43;68.0;59.8;
65783;PMS5003;52532;53.358;-1.488;2022-10-16T12:49:48;78.1;67.2;
65783;PMS5003;52532;53.358;-1.488;2022-10-16T12:52:52;62.8;56.7;
65783;PMS5003;52532;53.358;-1.488;2022-10-16T12:55:58;73.8;67.1;
65783;PMS5003;52532;53.358;-1.488;2022-10-16T12:59:14;73.0;69.2;
65783;PMS5003;52532;53.358;-1.488;2022-10-16T13:02:35;58.3;55.0;
65783;PMS5003;52532;53.358;-1.488;2022-10-16T13:06:30;79.3;73.0;
65783;PMS5003;52532;53.358;-1.488;2022-10-16T13:09:43;78.5;64.5;
65783;PMS5003;52532;53.358;-1.488;2022-10-16T13:13:02;58.7;51.7;
65783;PMS5003;52532;53.358;-1.488;2022-10-16T13:16:17;77.6;66.6;
65783;PMS5003;52532;53.358;-1.488;2022-10-16T13:19:28;74.3;63.4;
65783;PMS5003;52532;53.358;-1.488;2022-10-16T13:22:35;46.9;38.6;
65783;PMS5003;52532;53.358;-1.488;2022-10-16T13:25:49;78.0;66.2;
65783;PMS5003;52532;53.358;-1.488;2022-10-16T13:29:03;87.3;75.6;
65783;PMS5003;52532;53.358;-1.488;2022-10-16T13:32:07;52.4;44.1;
65783;PMS5003;52532;53.358;-1.488;2022-10-16T13:35:22;72.3;59.3;
65783;PMS5003;52532;53.358;-1.488;2022-10-16T13:38:27;77.7;67.8;
65783;PMS5003;52532;53.358;-1.488;2022-10-16T13:41:30;60.7;48.7;
65783;PMS5003;52532;53.358;-1.488;2022-10-16T13:44:35;76.5;62.4;
65783;PMS5003;52532;53.358;-1.488;2022-10-16T13:47:42;82.8;71.5;
65783;PMS5003;52532;53.358;-1.488;2022-10-16T13:50:45;72.3;67.1;
65783;PMS5003;52532;53.358;-1.488;2022-10-16T13:53:48;79.1;67.2;
65783;PMS5003;52532;53.358;-1.488;2022-10-16T13:56:51;73.3;63.7;
65783;PMS5003;52532;53.358;-1.488;2022-10-16T13:59:54;59.9;50.9;
65783;PMS5003;52532;53.358;-1.488;2022-10-16T14:02:58;64.6;53.1;
65783;PMS5003;52532;53.358;-1.488;2022-10-16T14:06:05;57.6;50.4;
65783;PMS5003;52532;53.358;-1.488;2022-10-16T14:09:17;65.9;57.5;
65783;PMS5003;52532;53.358;-1.488;2022-10-16T14:12:25;66.3;54.3;
65783;PMS5003;52532;53.358;-1.488;2022-10-16T14:15:27;57.2;48.6;
65783;PMS5003;52532;53.358;-1.488;2022-10-16T14:18:33;74.8;65.8;
65783;PMS5003;52532;53.358;-1.488;2022-10-16T14:21:37;67.3;56.5;
65783;PMS5003;52532;53.358;-1.488;2022-10-16T14:24:42;60.0;54.7;
65783;PMS5003;52532;53.358;-1.488;2022-10-16T14:27:45;70.7;61.2;
65783;PMS5003;52532;53.358;-1.488;2022-10-16T14:30:59;68.4;57.1;
65783;PMS5003;52532;53.358;-1.488;2022-10-16T14:34:03;61.8;57.9;
65783;PMS5003;52532;53.358;-1.488;2022-10-16T14:37:08;75.5;68.3;
65783;PMS5003;52532;53.358;-1.488;2022-10-16T14:40:17;73.9;63.5;
65783;PMS5003;52532;53.358;-1.488;2022-10-16T14:43:21;59.3;57.2;
65783;PMS5003;52532;53.358;-1.488;2022-10-16T14:46:36;75.8;72.8;
65783;PMS5003;52532;53.358;-1.488;2022-10-16T14:49:41;75.2;67.1;
65783;PMS5003;52532;53.358;-1.488;2022-10-16T14:52:48;62.5;55.7;
65783;PMS5003;52532;53.358;-1.488;2022-10-16T14:55:57;65.5;61.2;
65783;PMS5003;52532;53.358;-1.488;2022-10-16T14:59:00;60.8;59.7;
65783;PMS5003;52532;53.358;-1.488;2022-10-16T15:02:09;54.5;51.5;
65783;PMS5003;52532;53.358;-1.488;2022-10-16T15:05:24;65.1;63.0;
65783;PMS5003;52532;53.358;-1.488;2022-10-16T15:08:28;63.4;58.4;
65783;PMS5003;52532;53.358;-1.488;2022-10-16T15:11:31;53.9;49.4;
65783;PMS5003;52532;53.358;-1.488;2022-10-16T15:14:35;63.1;55.4;
65783;PMS5003;52532;53.358;-1.488;2022-10-16T15:17:39;63.2;56.7;
65783;PMS5003;52532;53.358;-1.488;2022-10-16T15:20:42;43.2;36.4;
65783;PMS5003;52532;53.358;-1.488;2022-10-16T15:23:45;73.2;61.5;
65783;PMS5003;52532;53.358;-1.488;2022-10-16T15:26:47;70.5;62.4;
65783;PMS5003;52532;53.358;-1.488;2022-10-16T15:29:50;55.3;45.4;
65783;PMS5003;52532;53.358;-1.488;2022-10-16T15:32:54;80.1;68.2;
65783;PMS5003;52532;53.358;-1.488;2022-10-16T15:35:57;67.3;58.4;
65783;PMS5003;52532;53.358;-1.488;2022-10-16T15:39:00;50.8;41.6;
65783;PMS5003;52532;53.358;-1.488;2022-10-16T15:42:03;64.2;51.0;
65783;PMS5003;52532;53.358;-1.488;2022-10-16T15:45:08;55.3;47.0;
65783;PMS5003;52532;53.358;-1.488;2022-10-16T15:48:12;51.3;41.8;
65783;PMS5003;52532;53.358;-1.488;2022-10-16T15:51:16;62.6;51.1;
65783;PMS5003;52532;53.358;-1.488;2022-10-16T15:54:19;46.9;39.7;
65783;PMS5003;52532;53.358;-1.488;2022-10-16T15:57:24;50.6;38.4;
65783;PMS5003;52532;53.358;-1.488;2022-10-16T16:00:29;55.5;44.3;
65783;PMS5003;52532;53.358;-1.488;2022-10-16T16:03:32;42.0;36.1;
65783;PMS5003;52532;53.358;-1.488;2022-10-16T16:06:37;50.4;40.3;
65783;PMS5003;52532;53.358;-1.488;2022-10-16T16:09:46;63.1;51.8;
65783;PMS5003;52532;53.358;-1.488;2022-10-16T16:12:49;44.0;38.3;
65783;PMS5003;52532;53.358;-1.488;2022-10-16T16:15:54;42.7;31.5;
65783;PMS5003;52532;53.358;-1.488;2022-10-16T16:18:57;69.8;58.8;
65783;PMS5003;52532;53.358;-1.488;2022-10-16T16:22:00;41.4;34.9;
65783;PMS5003;52532;53.358;-1.488;2022-10-16T16:25:03;42.5;28.9;
65783;PMS5003;52532;53.358;-1.488;2022-10-16T16:28:08;59.3;44.9;
65783;PMS5003;52532;53.358;-1.488;2022-10-16T16:31:15;43.3;35.1;
65783;PMS5003;52532;53.358;-1.488;2022-10-16T16:34:18;88.9;77.6;
65783;PMS5003;52532;53.358;-1.488;2022-10-16T16:37:22;91.6;80.1;
65783;PMS5003;52532;53.358;-1.488;2022-10-16T16:40:26;33.9;23.2;
65783;PMS5003;52532;53.358;-1.488;2022-10-16T16:43:29;62.1;46.6;
65783;PMS5003;52532;53.358;-1.488;2022-10-16T16:46:33;82.2;70.0;
65783;PMS5003;52532;53.358;-1.488;2022-10-16T16:49:36;31.9;21.9;
65783;PMS5003;52532;53.358;-1.488;2022-10-16T16:52:39;51.8;37.5;
65783;PMS5003;52532;53.358;-1.488;2022-10-16T16:55:42;65.1;53.9;
65783;PMS5003;52532;53.358;-1.488;2022-10-16T16:58:46;27.9;20.0;
65783;PMS5003;52532;53.358;-1.488;2022-10-16T17:01:51;68.5;55.4;
65783;PMS5003;52532;53.358;-1.488;2022-10-16T17:04:54;72.0;62.4;
65783;PMS5003;52532;53.358;-1.488;2022-10-16T17:07:59;51.5;43.0;
65783;PMS5003;52532;53.358;-1.488;2022-10-16T17:11:02;91.3;78.8;
65783;PMS5003;52532;53.358;-1.488;2022-10-16T17:14:06;87.1;78.6;
65783;PMS5003;52532;53.358;-1.488;2022-10-16T17:17:09;50.1;41.3;
65783;PMS5003;52532;53.358;-1.488;2022-10-16T17:20:13;61.6;49.9;
65783;PMS5003;52532;53.358;-1.488;2022-10-16T17:23:17;59.4;49.5;
65783;PMS5003;52532;53.358;-1.488;2022-10-16T17:26:22;39.5;28.6;
65783;PMS5003;52532;53.358;-1.488;2022-10-16T17:29:26;61.6;49.8;
65783;PMS5003;52532;53.358;-1.488;2022-10-16T17:32:29;63.8;55.6;
65783;PMS5003;52532;53.358;-1.488;2022-10-16T17:35:35;42.3;32.3;
65783;PMS5003;52532;53.358;-1.488;2022-10-16T17:38:39;51.0;39.3;
65783;PMS5003;52532;53.358;-1.488;2022-10-16T17:41:43;44.4;37.3;
65783;PMS5003;52532;53.358;-1.488;2022-10-16T17:44:47;47.2;35.6;
65783;PMS5003;52532;53.358;-1.488;2022-10-16T17:47:50;61.6;50.0;
65783;PMS5003;52532;53.358;-1.488;2022-10-16T17:50:54;45.5;39.3;
65783;PMS5003;52532;53.358;-1.488;2022-10-16T17:53:58;44.1;33.4;
65783;PMS5003;52532;53.358;-1.488;2022-10-16T17:57:08;52.6;40.3;
65783;PMS5003;52532;53.358;-1.488;2022-10-16T18:00:12;40.7;34.0;
65783;PMS5003;52532;53.358;-1.488;2022-10-16T18:03:16;51.9;38.0;
65783;PMS5003;52532;53.358;-1.488;2022-10-16T18:06:19;49.2;39.3;
65783;PMS5003;52532;53.358;-1.488;2022-10-16T18:09:23;28.0;22.3;
65783;PMS5003;52532;53.358;-1.488;2022-10-16T18:12:26;54.6;42.1;
65783;PMS5003;52532;53.358;-1.488;2022-10-16T18:15:30;77.8;64.6;
65783;PMS5003;52532;53.358;-1.488;2022-10-16T18:18:39;30.5;24.2;
65783;PMS5003;52532;53.358;-1.488;2022-10-16T18:21:45;56.2;44.5;
65783;PMS5003;52532;53.358;-1.488;2022-10-16T18:24:50;71.1;60.6;
65783;PMS5003;52532;53.358;-1.488;2022-10-16T18:27:53;40.5;30.6;
65783;PMS5003;52532;53.358;-1.488;2022-10-16T18:30:56;107.1;96.6;
65783;PMS5003;52532;53.358;-1.488;2022-10-16T18:34:01;121.7;116.2;
65783;PMS5003;52532;53.358;-1.488;2022-10-16T18:37:05;28.8;21.8;
65783;PMS5003;52532;53.358;-1.488;2022-10-16T18:40:09;67.6;55.0;
65783;PMS5003;52532;53.358;-1.488;2022-10-16T18:43:12;78.4;67.7;
65783;PMS5003;52532;53.358;-1.488;2022-10-16T18:46:17;61.3;48.9;
65783;PMS5003;52532;53.358;-1.488;2022-10-16T18:49:21;88.6;78.1;
65783;PMS5003;52532;53.358;-1.488;2022-10-16T18:52:24;88.8;81.2;
65783;PMS5003;52532;53.358;-1.488;2022-10-16T18:55:27;49.9;38.0;